Amsden, OH

3:30 PM EST on January 26, 2015 (GMT -0500)
APRSWXNET Arcadia OH US | Change Station
CLOSE
Current Station
Personal Weather Station
Location: Arcadia, OH
Elevation: 790 ft
Nearby Weather Stations

Elev 790 ft 41.12 °N, 83.52 °W | Updated 25 minutes ago

Partly Cloudy
Partly Cloudy
19 °F
Feels Like 11 °F
N
6
Wind Variable Wind from NNW
Gusts 10.0 mph

Today
High -- | Low -- °F
--% Chance of Precip.
Yesterday
High -- | Low -- °F
Precip. -- in
7:50 AM 5:42 PM
Waxing Crescent, 46% visible
Pressure 29.88 in
Visibility 10.0 miles
Clouds Few 1500 ft
Windchill 11 °F
Dew Point 12 °F
Humidity 74%
Rainfall 0.00 in
Snow Depth Not available.
UV 2 out of 12
Pollen .10 out of 12
Air Quality Not available.
Flu Activity Not available.
SPECI KFDY 262006Z AUTO VRB05KT 10SM FEW015 M07/M12 A2988 RMK AO2 T10721117

More Conditions Fewer Conditions

Pressure 29.88 in
Visibility 10.0 miles
Clouds Few 1500 ft
Windchill 11 °F
Dew Point 12 °F
Humidity 74%
Rainfall 0.00 in
Snow Depth Not available.
UV 2 out of 12
Pollen .10 out of 12
Air Quality Not available.
Flu Activity Not available.
SPECI KFDY 262006Z AUTO VRB05KT 10SM FEW015 M07/M12 A2988 RMK AO2 T10721117

More Conditions Fewer Conditions

10-Day Weather Forecast

Almanac

Astronomy

Jan. 26, 2015 Rise Set
Actual Time
Civil Twilight
Nautical Twilight
Astronomical Twilight
Moon
Length of Visible Light
Length of Day
Tomorrow will be .
, % of the Moon is Illuminated

Today's Extremes

State Highs State Lows

Community

WunderPhotos

Upload Photos

1,790,349 photos uploaded!

WunderBlogs® & News

Nearby

Air Quality

  Air Quality AQ Index Pollutant
Not available.

Snow Depth

Station Depth Elevation

Earthquake Activity

City Distance Mag. Time & Date
Minimum magnitude displayed is 2.5.

Coastal Water Temperatures

Place Temperature

Nearby Weather Stations